Terminal Aerodrome Forecast
Issued by NWS

Current Version | Previous Version | Graphics & Text | Print | Product List | Glossary On
Versions: 1 2 3 4 5 6 7 8 9 10 11 12 13 14 15 16 17
000
FTUS41 KRNK 200901 AAA
TAFLWB
TAF AMD
KLWB 200901Z 2009/2106 00000KT P6SM SCT250
     FM200930 00000KT 4SM BR FEW250
     FM201030 00000KT 1/2SM FG BKN003
     FM201300 00000KT 4SM BR SCT010
     FM201430 30004KT P6SM SCT250=

USA.gov is the U.S. government's official web portal to all federal, state and local government web resources and services.